Colburn, Idaho
Current Conditions -  °F | °C
As of 8:55 PM on Saturday 25 Oct 2014 (Local Time) from KSZT Reporting Station
Overcast Overcast  
Wind Chill: 46°   Ceiling: 8000
Heat Index: 48°   Visibility: 10mi
Dew Point: 48°   Wind: 5mph
Humidity: 100%   Direction: 50°NE
Pressure: 29.56"   Gusts: NA
Location:  48.4°N, 116.54°W
Report Text: KSZT 260355Z AUTO 05004KT 10SM OVC080 09/09 A2956 RMK AO2
Loading
Personal Weather Stations






























Interactive Weather Map
Tropical Storm Tracking
New forecast layout! Learn more

10-Day Weather Forecast

Advertisements
Track Severe Weather on mobile